createdAt,value
2019-01-23T06:48:14.639Z,955.35
2019-01-23T06:49:14.431Z,955.33
2019-01-23T06:51:07.361Z,955.34
2019-01-23T06:52:07.151Z,955.33
2019-01-23T06:54:01.057Z,955.34
2019-01-23T06:55:00.898Z,955.34
2019-01-23T06:56:53.785Z,955.33
2019-01-23T06:57:53.675Z,955.34
2019-01-23T06:59:46.471Z,955.35
2019-01-23T07:00:46.375Z,955.35
2019-01-23T07:02:40.165Z,955.35
2019-01-23T07:03:40.135Z,955.32
2019-01-23T07:05:33.055Z,955.32
2019-01-23T07:06:32.798Z,955.30
2019-01-23T07:10:26.675Z,955.28
2019-01-23T07:11:26.501Z,955.31
2019-01-23T07:13:19.326Z,955.31
2019-01-23T07:14:19.346Z,955.32
2019-01-23T07:16:12.350Z,955.33
2019-01-23T07:17:12.287Z,955.34
2019-01-23T07:18:12.103Z,955.34
2019-01-23T07:19:12.129Z,955.35
2019-01-23T07:20:12.291Z,955.34
2019-01-23T07:21:11.887Z,955.35
2019-01-23T07:22:11.878Z,955.35
2019-01-23T07:23:11.722Z,955.38
2019-01-23T07:24:11.771Z,955.38
2019-01-23T07:25:11.599Z,955.32
2019-01-23T07:26:11.860Z,955.39
2019-01-23T07:27:11.654Z,955.39
2019-01-23T07:28:11.680Z,955.38
2019-01-23T07:29:11.411Z,955.39
2019-01-23T07:30:11.625Z,955.42
2019-01-23T07:31:11.328Z,955.43
2019-01-23T07:32:11.461Z,955.42
2019-01-23T07:33:11.219Z,955.43
2019-01-23T07:34:11.384Z,955.41
2019-01-23T07:35:11.251Z,955.48
2019-01-23T07:36:11.112Z,955.43
2019-01-23T07:37:11.105Z,955.43
2019-01-23T07:38:11.075Z,955.45
2019-01-23T07:39:11.107Z,955.46
2019-01-23T07:40:11.084Z,955.48
2019-01-23T07:41:11.463Z,955.49
2019-01-23T07:42:10.912Z,955.54
2019-01-23T07:43:10.913Z,955.54
2019-01-23T07:44:10.903Z,955.55
2019-01-23T07:45:10.696Z,955.56
2019-01-23T07:46:10.760Z,955.58
2019-01-23T07:47:10.597Z,955.55
2019-01-23T07:48:10.716Z,955.61
2019-01-23T07:49:10.619Z,955.57
2019-01-23T07:50:10.638Z,955.62
2019-01-23T07:51:10.701Z,955.61
2019-01-23T07:52:10.500Z,955.55
2019-01-23T07:53:10.460Z,955.60
2019-01-23T07:54:10.412Z,955.62
2019-01-23T07:55:10.350Z,955.61
2019-01-23T07:56:10.195Z,955.61
2019-01-23T07:57:10.145Z,955.59
2019-01-23T07:58:10.108Z,955.61
2019-01-23T07:59:10.060Z,955.60
2019-01-23T08:00:10.038Z,955.60
2019-01-23T08:01:09.970Z,955.61
2019-01-23T08:02:09.924Z,955.58
2019-01-23T08:03:09.880Z,955.56
2019-01-23T08:04:09.839Z,955.56
2019-01-23T08:05:09.911Z,955.55
2019-01-23T08:06:09.744Z,955.57
2019-01-23T08:07:09.703Z,955.52
2019-01-23T08:08:09.660Z,955.57
2019-01-23T08:09:09.619Z,955.58
2019-01-23T08:10:09.578Z,955.59
2019-01-23T08:11:09.523Z,955.61
2019-01-23T08:12:10.790Z,955.59
2019-01-23T08:13:09.491Z,955.63
2019-01-23T08:14:09.928Z,955.61
2019-01-23T08:15:09.347Z,955.64
2019-01-23T08:16:09.790Z,955.64
2019-01-23T08:17:09.465Z,955.63
2019-01-23T08:18:09.359Z,955.70
2019-01-23T08:19:09.291Z,955.65
2019-01-23T08:20:09.302Z,955.65
2019-01-23T08:21:09.142Z,955.66
2019-01-23T08:22:09.041Z,955.65
2019-01-23T08:23:09.229Z,955.68
2019-01-23T08:24:08.965Z,955.67
2019-01-23T08:25:08.904Z,955.66
2019-01-23T08:26:08.875Z,955.63
2019-01-23T08:27:08.816Z,955.63
2019-01-23T08:28:08.785Z,955.64
2019-01-23T08:29:08.733Z,955.63
2019-01-23T08:30:08.688Z,955.61
2019-01-23T08:31:08.639Z,955.63
2019-01-23T08:32:08.591Z,955.59
2019-01-23T08:33:08.553Z,955.64
2019-01-23T08:34:08.521Z,955.65
2019-01-23T08:35:08.462Z,955.70
2019-01-23T08:36:08.414Z,955.65
2019-01-23T08:37:08.365Z,955.68
2019-01-23T08:38:08.325Z,955.74
2019-01-23T08:39:08.286Z,955.69
2019-01-23T08:40:08.236Z,955.70
2019-01-23T08:41:08.196Z,955.68
2019-01-23T08:42:08.154Z,955.67
2019-01-23T08:43:08.107Z,955.72
2019-01-23T08:44:08.063Z,955.70
2019-01-23T08:45:08.015Z,955.69
2019-01-23T08:46:07.972Z,955.69
2019-01-23T08:47:07.931Z,955.72
2019-01-23T08:48:07.883Z,955.69
2019-01-23T08:49:07.840Z,955.70
2019-01-23T08:50:07.795Z,955.68
2019-01-23T08:51:07.754Z,955.69
2019-01-23T08:52:07.708Z,955.70
2019-01-23T08:53:07.666Z,955.68
2019-01-23T08:54:07.624Z,955.71
2019-01-23T08:55:07.578Z,955.68
2019-01-23T08:56:07.530Z,955.69
2019-01-23T08:57:07.483Z,955.69
2019-01-23T08:58:07.446Z,955.68
2019-01-23T08:59:07.403Z,955.70
2019-01-23T09:00:07.378Z,955.69
2019-01-23T09:01:07.310Z,955.68
2019-01-23T09:02:07.302Z,955.70
2019-01-23T09:03:07.224Z,955.72
2019-01-23T09:04:07.182Z,955.73
2019-01-23T09:05:07.135Z,955.72
2019-01-23T09:06:07.100Z,955.71
2019-01-23T09:07:07.060Z,955.73
2019-01-23T09:08:07.006Z,955.73
2019-01-23T09:09:06.961Z,955.72
2019-01-23T09:10:06.916Z,955.72
2019-01-23T09:11:06.870Z,955.71
2019-01-23T09:12:06.829Z,955.72
2019-01-23T09:13:06.781Z,955.76
2019-01-23T09:14:06.747Z,955.75
2019-01-23T09:15:06.694Z,955.74
2019-01-23T09:16:06.645Z,955.73
2019-01-23T09:17:06.606Z,955.73
2019-01-23T09:18:07.214Z,955.72
2019-01-23T09:19:06.524Z,955.74
2019-01-23T09:20:06.472Z,955.77
2019-01-23T09:21:06.432Z,955.78
2019-01-23T09:22:06.385Z,955.77
2019-01-23T09:23:06.343Z,955.79
2019-01-23T09:24:06.290Z,955.83
2019-01-23T09:25:06.253Z,955.81
2019-01-23T09:26:06.204Z,955.82
2019-01-23T09:27:06.168Z,955.86
2019-01-23T09:28:06.116Z,955.86
2019-01-23T09:29:06.072Z,955.87
2019-01-23T09:30:06.035Z,955.89
2019-01-23T09:31:05.987Z,955.89
2019-01-23T09:32:05.955Z,955.94
2019-01-23T09:33:05.900Z,955.93
2019-01-23T09:34:05.855Z,955.92
2019-01-23T09:35:05.807Z,955.89
2019-01-23T09:36:50.676Z,955.93
2019-01-23T09:37:50.598Z,955.90
2019-01-23T09:39:43.374Z,955.92
2019-01-23T09:40:43.345Z,955.91
2019-01-23T09:42:36.139Z,955.94
2019-01-23T09:43:36.086Z,955.93
2019-01-23T09:45:28.920Z,955.90
2019-01-23T09:46:28.810Z,955.94
2019-01-23T09:48:21.639Z,955.93
2019-01-23T09:49:21.558Z,955.94
2019-01-23T09:51:14.434Z,955.97
2019-01-23T09:52:14.311Z,955.96
2019-01-23T09:54:07.120Z,955.99
2019-01-23T09:55:07.059Z,956.02
2019-01-23T09:57:00.024Z,956.03
2019-01-23T09:57:59.802Z,956.04
2019-01-23T09:59:52.614Z,956.04
2019-01-23T10:00:52.568Z,956.03
2019-01-23T10:02:45.396Z,956.08
2019-01-23T10:03:45.296Z,956.08
2019-01-23T10:04:45.249Z,956.04
2019-01-23T10:05:45.208Z,956.04
2019-01-23T10:06:45.160Z,956.05
2019-01-23T10:07:45.114Z,956.06
2019-01-23T10:08:45.071Z,956.08
2019-01-23T10:09:45.025Z,956.06
2019-01-23T10:10:44.984Z,956.06
2019-01-23T10:11:44.948Z,956.10
2019-01-23T10:12:44.895Z,956.09
2019-01-23T10:13:44.871Z,956.08
2019-01-23T10:14:44.807Z,956.10
2019-01-23T10:15:44.772Z,956.08
2019-01-23T10:16:44.719Z,956.10
2019-01-23T10:17:44.672Z,956.10
2019-01-23T10:18:44.628Z,956.15
2019-01-23T10:19:44.609Z,956.12
2019-01-23T10:20:44.541Z,956.13
2019-01-23T10:21:44.499Z,956.14
2019-01-23T10:22:44.455Z,956.15
2019-01-23T10:23:44.417Z,956.15
2019-01-23T10:24:44.366Z,956.17
2019-01-23T10:25:44.332Z,956.16
2019-01-23T10:26:44.278Z,956.16
2019-01-23T10:27:44.463Z,956.17
2019-01-23T10:28:44.188Z,956.15
2019-01-23T10:29:44.146Z,956.14
2019-01-23T10:30:44.104Z,956.17
2019-01-23T10:31:44.058Z,956.17
2019-01-23T10:32:44.028Z,956.18
2019-01-23T10:33:43.971Z,956.18
2019-01-23T10:34:43.924Z,956.15
2019-01-23T10:35:44.047Z,956.21
2019-01-23T10:36:43.877Z,956.16
2019-01-23T10:37:43.991Z,956.15
2019-01-23T10:38:43.742Z,956.16
2019-01-23T10:39:43.707Z,956.16
2019-01-23T10:40:43.659Z,956.16
2019-01-23T10:41:43.621Z,956.20
2019-01-23T10:42:43.568Z,956.20
2019-01-23T10:43:43.534Z,956.21
2019-01-23T10:44:43.480Z,956.22
2019-01-23T10:45:43.449Z,956.20
2019-01-23T10:46:43.395Z,956.20
2019-01-23T10:47:43.347Z,956.17
2019-01-23T10:48:43.302Z,956.19
2019-01-23T10:49:43.272Z,956.18
2019-01-23T10:50:43.213Z,956.21
2019-01-23T10:51:43.169Z,956.24
2019-01-23T10:52:43.130Z,956.21
2019-01-23T10:53:43.082Z,956.23
2019-01-23T10:54:43.028Z,956.21
2019-01-23T10:55:42.993Z,956.21
2019-01-23T10:56:42.949Z,956.25
2019-01-23T10:57:42.945Z,956.26
2019-01-23T10:58:42.860Z,956.27
2019-01-23T10:59:42.815Z,956.24
2019-01-23T11:00:42.771Z,956.27
2019-01-23T11:01:42.725Z,956.25
2019-01-23T11:02:42.683Z,956.24
2019-01-23T11:03:42.639Z,956.26
2019-01-23T11:04:42.608Z,956.25
2019-01-23T11:05:42.554Z,956.22
2019-01-23T11:06:42.512Z,956.22
2019-01-23T11:07:42.461Z,956.24
2019-01-23T11:08:42.410Z,956.24
2019-01-23T11:54:46.576Z,956.24
2019-01-23T11:55:46.491Z,956.28
2019-01-23T11:57:39.370Z,956.27
2019-01-23T11:58:39.250Z,956.28
2019-01-23T11:59:39.193Z,956.29
2019-01-23T12:00:39.159Z,956.32
2019-01-23T12:01:39.100Z,956.28
2019-01-23T12:02:39.050Z,956.31
2019-01-23T12:03:38.999Z,956.33
2019-01-23T12:04:38.954Z,956.35
2019-01-23T12:05:38.902Z,956.35
2019-01-23T12:06:38.858Z,956.35
2019-01-23T12:07:38.826Z,956.39
2019-01-23T12:08:38.781Z,956.35
2019-01-23T12:09:38.735Z,956.40
2019-01-23T12:10:38.688Z,956.40
2019-01-23T12:11:38.620Z,956.44
2019-01-23T12:12:38.574Z,956.44
2019-01-23T12:13:38.527Z,956.45
2019-01-23T12:14:38.483Z,956.45
2019-01-23T12:15:40.961Z,956.45
2019-01-23T12:16:38.386Z,956.43
2019-01-23T12:17:38.349Z,956.42
2019-01-23T12:18:38.293Z,956.42
2019-01-23T12:19:38.264Z,956.40
2019-01-23T12:20:38.243Z,956.42
2019-01-23T12:21:38.158Z,956.43
2019-01-23T12:22:38.116Z,956.45
2019-01-23T12:23:38.067Z,956.44
2019-01-23T12:24:38.022Z,956.45
2019-01-23T12:25:37.974Z,956.40
2019-01-23T12:26:38.785Z,956.37
2019-01-23T12:27:37.888Z,956.42
2019-01-23T12:28:37.866Z,956.36
2019-01-23T12:29:37.800Z,956.40
2019-01-23T12:30:37.759Z,956.40
2019-01-23T12:31:37.709Z,956.46
2019-01-23T12:32:37.673Z,956.41
2019-01-23T12:33:37.617Z,956.43
2019-01-23T12:34:37.569Z,956.45
2019-01-23T12:35:37.524Z,956.46
2019-01-23T12:36:37.479Z,956.47
2019-01-23T12:37:37.440Z,956.46
2019-01-23T12:38:37.387Z,956.47
2019-01-23T12:39:37.347Z,956.44
2019-01-23T12:40:37.299Z,956.47
2019-01-23T12:41:37.264Z,956.47
2019-01-23T12:42:37.213Z,956.50
2019-01-23T12:43:37.159Z,956.47
2019-01-23T12:44:37.126Z,956.48
2019-01-23T12:45:37.072Z,956.49
2019-01-23T12:46:37.033Z,956.48
2019-01-23T12:47:36.989Z,956.51
2019-01-23T12:48:36.944Z,956.50
2019-01-23T12:49:36.898Z,956.52
2019-01-23T12:50:36.854Z,956.53
2019-01-23T12:51:36.810Z,956.53
2019-01-23T12:52:36.766Z,956.52
2019-01-23T12:53:36.731Z,956.55
2019-01-23T12:54:36.674Z,956.55
2019-01-23T12:55:36.630Z,956.56
2019-01-23T12:56:36.586Z,956.59
2019-01-23T12:57:36.541Z,956.58
2019-01-23T12:58:36.499Z,956.57
2019-01-23T12:59:36.452Z,956.57
2019-01-23T13:00:36.407Z,956.58
2019-01-23T13:01:41.928Z,956.58
2019-01-23T13:02:36.364Z,956.56
2019-01-23T13:03:36.272Z,956.50
2019-01-23T13:04:36.230Z,956.55
2019-01-23T13:05:36.183Z,956.53
2019-01-23T13:06:36.141Z,956.54
2019-01-23T13:07:36.095Z,956.54
2019-01-23T13:08:36.053Z,956.56
2019-01-23T13:09:36.006Z,956.53
2019-01-23T13:10:35.964Z,956.54
2019-01-23T13:11:35.919Z,956.55
2019-01-23T13:12:35.874Z,956.58
2019-01-23T13:13:35.830Z,956.60
2019-01-23T13:14:35.790Z,956.64
2019-01-23T13:15:35.741Z,956.64
2019-01-23T13:16:35.733Z,956.67
2019-01-23T13:17:35.661Z,956.70
2019-01-23T13:18:35.607Z,956.72
2019-01-23T13:19:35.593Z,956.71
2019-01-23T13:20:35.522Z,956.72
2019-01-23T13:21:35.493Z,956.72
2019-01-23T13:22:35.437Z,956.79
2019-01-23T13:23:35.390Z,956.75
2019-01-23T13:24:35.340Z,956.72
2019-01-23T13:25:35.292Z,956.73
2019-01-23T13:26:35.271Z,956.76
2019-01-23T13:27:35.204Z,956.80
2019-01-23T13:28:35.163Z,956.81
2019-01-23T13:29:35.118Z,956.82
2019-01-23T13:30:35.071Z,956.84
2019-01-23T13:31:35.069Z,956.87
2019-01-23T13:32:34.986Z,956.87
2019-01-23T13:33:34.940Z,956.91
2019-01-23T13:34:34.897Z,956.88
2019-01-23T13:35:34.882Z,956.91
2019-01-23T13:36:34.809Z,956.89
2019-01-23T13:37:34.762Z,956.88
2019-01-23T13:38:34.718Z,956.90
2019-01-23T13:39:34.679Z,956.94
2019-01-23T13:40:34.634Z,956.95
2019-01-23T13:41:34.587Z,956.95
2019-01-23T13:42:34.541Z,956.96
2019-01-23T13:43:34.495Z,957.00
2019-01-23T13:44:34.459Z,956.98
2019-01-23T13:45:34.432Z,957.01
2019-01-23T13:46:34.366Z,957.04
2019-01-23T13:47:34.316Z,957.06
2019-01-23T13:48:34.275Z,957.07
2019-01-23T13:49:34.265Z,957.07
2019-01-23T13:50:34.190Z,957.07
2019-01-23T13:51:34.149Z,957.09
2019-01-23T13:52:34.099Z,957.06
2019-01-23T13:53:34.094Z,957.08
2019-01-23T13:54:34.008Z,957.08
2019-01-23T13:55:33.966Z,957.10
2019-01-23T13:56:33.938Z,957.07
2019-01-23T13:57:33.877Z,957.08
2019-01-23T13:58:33.962Z,957.12
2019-01-23T13:59:33.802Z,957.15
2019-01-23T14:00:33.747Z,957.15
2019-01-23T14:01:33.701Z,957.16
2019-01-23T14:02:33.649Z,957.16
2019-01-23T14:03:33.624Z,957.17
2019-01-23T14:04:33.567Z,957.19
2019-01-23T14:06:36.541Z,957.18
2019-01-23T14:07:36.427Z,957.17
2019-01-23T14:09:29.241Z,957.22
2019-01-23T14:10:29.249Z,957.20
2019-01-23T14:12:21.968Z,957.20
2019-01-23T14:13:22.162Z,957.23
2019-01-23T14:14:22.039Z,957.27
2019-01-23T14:15:21.831Z,957.26
2019-01-23T14:16:22.201Z,957.28
2019-01-23T14:17:21.749Z,957.27
2019-01-23T14:18:21.696Z,957.24
2019-01-23T14:19:22.221Z,957.27
2019-01-23T14:20:21.776Z,957.30
2019-01-23T14:21:21.563Z,957.32
2019-01-23T14:22:21.519Z,957.33
2019-01-23T14:23:21.475Z,957.30
2019-01-23T14:24:21.478Z,957.33
2019-01-23T14:25:21.388Z,957.36
2019-01-23T14:26:21.341Z,957.36
2019-01-23T14:27:21.296Z,957.38
2019-01-23T14:28:21.252Z,957.39
2019-01-23T14:29:21.222Z,957.42
2019-01-23T14:30:21.159Z,957.45
2019-01-23T14:31:21.137Z,957.42
2019-01-23T14:32:21.072Z,957.40
2019-01-23T14:33:21.033Z,957.44
2019-01-23T14:34:20.987Z,957.43
2019-01-23T14:35:20.948Z,957.47
2019-01-23T14:36:20.903Z,957.50
2019-01-23T14:37:20.853Z,957.51
2019-01-23T14:38:20.824Z,957.55
2019-01-23T14:39:20.781Z,957.51
2019-01-23T14:40:20.719Z,957.54
2019-01-23T14:41:20.684Z,957.58
2019-01-23T14:42:20.652Z,957.58
2019-01-23T14:43:20.602Z,957.61
2019-01-23T14:44:20.538Z,957.61
2019-01-23T14:45:20.542Z,957.63
2019-01-23T14:46:20.480Z,957.64
2019-01-23T14:47:20.415Z,957.64
2019-01-23T14:48:20.542Z,957.65
2019-01-23T14:49:20.320Z,957.62
2019-01-23T14:50:20.273Z,957.66
2019-01-23T14:51:20.229Z,957.64
2019-01-23T14:52:20.185Z,957.67
2019-01-23T14:53:20.141Z,957.64
2019-01-23T14:54:20.095Z,957.68
2019-01-23T14:55:20.050Z,957.69
2019-01-23T14:56:20.009Z,957.70
2019-01-23T14:57:19.964Z,957.73
2019-01-23T14:58:19.918Z,957.76
2019-01-23T14:59:19.979Z,957.77
2019-01-23T15:00:19.854Z,957.76
2019-01-23T15:01:19.937Z,957.81
2019-01-23T15:02:19.742Z,957.81
2019-01-23T15:03:19.697Z,957.83
2019-01-23T15:04:19.651Z,957.83
2019-01-23T15:05:19.682Z,957.86
2019-01-23T15:06:19.559Z,957.87
2019-01-23T15:07:19.515Z,957.88
2019-01-23T15:08:19.500Z,957.89
2019-01-23T15:09:19.437Z,957.88
2019-01-23T15:10:19.386Z,957.91
2019-01-23T15:11:19.341Z,957.91
2019-01-23T15:12:19.297Z,957.89
2019-01-23T15:13:19.252Z,957.94
2019-01-23T15:14:19.209Z,957.93
2019-01-23T15:15:19.163Z,957.96
2019-01-23T15:16:19.115Z,957.97
2019-01-23T15:17:19.078Z,957.97
2019-01-23T15:18:19.027Z,957.96
2019-01-23T15:19:18.987Z,957.95
2019-01-23T15:20:18.940Z,957.95
2019-01-23T15:21:18.897Z,957.97
2019-01-23T15:22:18.855Z,957.98
2019-01-23T15:23:18.812Z,957.97
2019-01-23T15:24:18.764Z,957.97
2019-01-23T15:25:18.721Z,958.02
2019-01-23T15:26:18.691Z,958.00
2019-01-23T15:27:18.638Z,958.06
2019-01-23T15:28:18.603Z,958.05
2019-01-23T15:29:18.553Z,958.04
2019-01-23T15:30:18.502Z,958.09
2019-01-23T15:31:18.464Z,958.04
2019-01-23T15:32:18.406Z,958.10
2019-01-23T15:33:18.462Z,958.11
2019-01-23T15:34:18.320Z,958.10
2019-01-23T15:35:18.274Z,958.13
2019-01-23T15:36:18.232Z,958.15
2019-01-23T15:37:18.191Z,958.13
2019-01-23T15:38:18.155Z,958.14
2019-01-23T15:39:18.102Z,958.16
2019-01-23T15:40:18.054Z,958.18
2019-01-23T15:41:18.012Z,958.17
2019-01-23T15:42:17.964Z,958.19
2019-01-23T15:43:17.925Z,958.18
2019-01-23T15:44:17.877Z,958.18
2019-01-23T15:45:17.839Z,958.22
2019-01-23T15:46:17.793Z,958.24
2019-01-23T15:47:17.746Z,958.22
2019-01-23T15:48:17.707Z,958.31
2019-01-23T15:49:17.658Z,958.31
2019-01-23T15:50:17.615Z,958.31
2019-01-23T15:51:17.568Z,958.34
2019-01-23T15:52:17.523Z,958.31
2019-01-23T15:53:17.478Z,958.38
2019-01-23T15:54:17.454Z,958.37
2019-01-23T15:55:17.384Z,958.38
2019-01-23T15:56:17.343Z,958.39
2019-01-23T15:57:17.303Z,958.40
2019-01-23T15:58:17.257Z,958.42
2019-01-23T15:59:17.211Z,958.43
2019-01-23T16:00:17.226Z,958.43
2019-01-23T16:01:17.185Z,958.48
2019-01-23T16:02:24.039Z,958.49
2019-01-23T16:03:17.034Z,958.54
2019-01-23T16:04:17.000Z,958.48
2019-01-23T16:05:16.948Z,958.50
2019-01-23T16:06:16.898Z,958.53
2019-01-23T16:07:16.860Z,958.51
2019-01-23T16:08:16.835Z,958.53
2019-01-23T16:09:16.794Z,958.53
2019-01-23T16:10:16.738Z,958.56
2019-01-23T16:11:16.679Z,958.59
2019-01-23T16:12:16.674Z,958.58
2019-01-23T16:13:16.598Z,958.62
2019-01-23T16:14:16.548Z,958.66
2019-01-23T16:15:16.503Z,958.67
2019-01-23T16:16:16.462Z,958.69
2019-01-23T16:17:16.413Z,958.67
2019-01-23T16:18:16.376Z,958.70
2019-01-23T16:19:16.325Z,958.70
2019-01-23T16:20:16.278Z,958.71
2019-01-23T16:21:16.236Z,958.72
2019-01-23T16:22:16.189Z,958.75
2019-01-23T16:23:16.146Z,958.73
2019-01-23T16:24:16.100Z,958.79
2019-01-23T16:25:16.058Z,958.72
2019-01-23T16:26:16.022Z,958.75
2019-01-23T16:27:15.970Z,958.74
2019-01-23T16:28:15.928Z,958.78
2019-01-23T16:29:15.885Z,958.75
2019-01-23T16:30:15.861Z,958.79
2019-01-23T16:31:15.797Z,958.80
2019-01-23T16:32:15.794Z,958.83
2019-01-23T16:33:15.801Z,958.79
2019-01-23T16:34:15.662Z,958.79
2019-01-23T16:35:15.622Z,958.82
2019-01-23T16:36:15.567Z,958.85
2019-01-23T16:37:15.524Z,958.88
2019-01-23T16:38:15.478Z,958.90
2019-01-23T16:39:15.433Z,958.91
2019-01-23T16:40:15.386Z,958.94
2019-01-23T16:41:15.346Z,958.92
2019-01-23T16:42:15.868Z,958.99
2019-01-23T16:43:16.950Z,958.98
2019-01-23T16:44:15.211Z,959.02
2019-01-23T16:45:15.160Z,959.03
2019-01-23T16:46:15.122Z,958.99
2019-01-23T16:47:15.087Z,959.03
2019-01-23T16:48:15.029Z,959.03
2019-01-23T16:49:14.984Z,959.04
2019-01-23T16:50:14.944Z,959.05
2019-01-23T16:51:14.900Z,959.07
2019-01-23T16:52:14.856Z,959.06
2019-01-23T16:53:14.844Z,959.07
2019-01-23T16:54:14.766Z,959.09
2019-01-23T16:55:14.724Z,959.08
2019-01-23T16:56:14.678Z,959.12
2019-01-23T16:57:14.633Z,959.14
2019-01-23T16:58:14.589Z,959.17
2019-01-23T16:59:14.553Z,959.17
2019-01-23T17:00:14.499Z,959.17
2019-01-23T17:01:14.630Z,959.26
2019-01-23T17:02:14.416Z,959.25
2019-01-23T17:03:14.371Z,959.28
2019-01-23T17:04:14.321Z,959.31
2019-01-23T17:05:14.279Z,959.32
2019-01-23T17:06:14.232Z,959.33
2019-01-23T17:07:14.191Z,959.30
2019-01-23T17:08:14.144Z,959.37
2019-01-23T17:09:14.099Z,959.37
2019-01-23T17:10:14.055Z,959.40
2019-01-23T17:11:14.007Z,959.38
2019-01-23T17:12:13.965Z,959.40
2019-01-23T17:13:13.918Z,959.41
2019-01-23T17:14:13.879Z,959.42
2019-01-23T17:15:13.843Z,959.45
2019-01-23T17:16:13.791Z,959.47
2019-01-23T17:17:13.747Z,959.43
2019-01-23T17:18:13.700Z,959.47
2019-01-23T17:19:13.682Z,959.47
2019-01-23T17:20:13.691Z,959.49
2019-01-23T17:21:13.567Z,959.47
2019-01-23T17:22:13.528Z,959.52
2019-01-23T17:23:13.476Z,959.53
2019-01-23T17:24:13.492Z,959.55
2019-01-23T17:25:13.404Z,959.54
2019-01-23T17:26:13.348Z,959.57
2019-01-23T17:27:13.305Z,959.59
2019-01-23T17:28:13.255Z,959.59
2019-01-23T17:29:13.213Z,959.58
2019-01-23T17:30:13.172Z,959.60
2019-01-23T17:31:13.128Z,959.61
2019-01-23T17:32:13.075Z,959.62
2019-01-23T17:33:13.030Z,959.65
2019-01-23T17:34:12.990Z,959.65
2019-01-23T17:35:12.969Z,959.64
2019-01-23T17:36:12.900Z,959.64
2019-01-23T17:37:12.860Z,959.64
2019-01-23T17:38:12.826Z,959.68
2019-01-23T17:39:12.761Z,959.68
2019-01-23T17:40:12.719Z,959.72
2019-01-23T17:41:12.673Z,959.72
2019-01-23T17:42:12.635Z,959.75
2019-01-23T17:43:12.591Z,959.75
2019-01-23T17:44:12.541Z,959.75
2019-01-23T17:45:12.513Z,959.71
2019-01-23T17:46:12.453Z,959.70
2019-01-23T17:47:12.405Z,959.73
2019-01-23T17:48:12.363Z,959.74
2019-01-23T17:49:12.677Z,959.77
2019-01-23T17:50:12.283Z,959.78
2019-01-23T17:51:12.229Z,959.79
2019-01-23T17:52:12.185Z,959.83
2019-01-23T17:53:12.138Z,959.82
2019-01-23T17:54:12.096Z,959.86
2019-01-23T17:55:12.060Z,959.86
2019-01-23T17:56:12.007Z,959.89
2019-01-23T17:57:11.965Z,959.89
2019-01-23T17:58:11.918Z,959.93
2019-01-23T17:59:11.873Z,959.94
2019-01-23T18:00:11.829Z,959.94
2019-01-23T18:01:12.193Z,960.01
2019-01-23T18:02:11.742Z,959.98
2019-01-23T18:03:11.702Z,960.00
2019-01-23T18:04:11.657Z,960.04
2019-01-23T18:05:11.612Z,960.06
2019-01-23T18:06:11.569Z,960.09
2019-01-23T18:07:11.557Z,960.10
2019-01-23T18:08:11.471Z,960.13
2019-01-23T18:09:11.427Z,960.07
2019-01-23T18:10:11.452Z,960.09
2019-01-23T18:11:11.337Z,960.09
2019-01-23T18:12:11.294Z,960.11
2019-01-23T18:13:11.247Z,960.13
2019-01-23T18:14:11.206Z,960.14
2019-01-23T18:15:11.158Z,960.12
2019-01-23T18:16:11.131Z,960.12
2019-01-23T18:17:11.063Z,960.13
2019-01-23T18:18:11.027Z,960.13
2019-01-23T18:19:10.983Z,960.18
2019-01-23T18:20:10.941Z,960.13
2019-01-23T18:21:10.893Z,960.18
2019-01-23T18:22:10.855Z,960.22
2019-01-23T18:23:10.804Z,960.26
2019-01-23T18:24:10.915Z,960.26
2019-01-23T18:25:10.715Z,960.24
2019-01-23T18:26:10.672Z,960.25
2019-01-23T18:27:10.628Z,960.21
2019-01-23T18:28:10.627Z,960.24
2019-01-23T18:29:10.538Z,960.29
2019-01-23T18:30:10.494Z,960.28
2019-01-23T18:31:10.451Z,960.28
2019-01-23T18:32:10.401Z,960.28
2019-01-23T18:33:10.353Z,960.30
2019-01-23T18:34:10.338Z,960.31
2019-01-23T18:35:10.270Z,960.35
2019-01-23T18:36:10.245Z,960.34
2019-01-23T18:37:10.192Z,960.37
2019-01-23T18:38:10.136Z,960.37
2019-01-23T18:39:10.090Z,960.38
2019-01-23T18:40:10.409Z,960.38
2019-01-23T18:41:09.997Z,960.43
2019-01-23T18:42:10.068Z,960.41
2019-01-23T18:43:09.913Z,960.44
2019-01-23T18:44:09.867Z,960.40
2019-01-23T18:45:09.824Z,960.43
2019-01-23T18:46:09.778Z,960.45
2019-01-23T18:47:09.735Z,960.46
2019-01-23T18:48:09.740Z,960.46
2019-01-23T18:49:09.654Z,960.47
2019-01-23T18:50:09.601Z,960.46
2019-01-23T18:51:09.560Z,960.48
2019-01-23T18:52:09.518Z,960.50
2019-01-23T18:53:10.523Z,960.53
2019-01-23T18:54:09.423Z,960.49
2019-01-23T18:55:09.377Z,960.51
2019-01-23T18:56:09.336Z,960.51
2019-01-23T18:57:09.296Z,960.55
2019-01-23T18:58:09.253Z,960.52
2019-01-23T18:59:09.198Z,960.53
2019-01-23T19:00:09.163Z,960.54
2019-01-23T19:01:09.113Z,960.58
2019-01-23T19:02:09.067Z,960.59
2019-01-23T19:03:09.036Z,960.60
2019-01-23T19:04:08.973Z,960.62
2019-01-23T19:05:08.932Z,960.62
2019-01-23T19:06:08.882Z,960.63
2019-01-23T19:07:08.841Z,960.65
2019-01-23T19:08:08.799Z,960.64
2019-01-23T19:09:08.754Z,960.63
2019-01-23T19:10:08.740Z,960.65
2019-01-23T19:11:08.663Z,960.69
2019-01-23T19:12:08.621Z,960.70
2019-01-23T19:13:08.596Z,960.72
2019-01-23T19:14:08.685Z,960.73
2019-01-23T19:15:08.490Z,960.73
2019-01-23T19:16:08.441Z,960.71
2019-01-23T19:17:08.435Z,960.73
2019-01-23T19:18:08.434Z,960.73
2019-01-23T19:19:08.329Z,960.75
2019-01-23T19:20:08.267Z,960.77
2019-01-23T19:21:08.218Z,960.80
2019-01-23T19:22:08.176Z,960.78
2019-01-23T19:23:08.136Z,960.82
2019-01-23T19:24:08.216Z,960.81
2019-01-23T19:25:08.045Z,960.81
2019-01-23T19:26:08.013Z,960.80
2019-01-23T19:27:07.957Z,960.80
2019-01-23T19:28:07.915Z,960.82
2019-01-23T19:29:08.238Z,960.84
2019-01-23T19:30:09.296Z,960.80
2019-01-23T19:31:07.777Z,960.79
2019-01-23T19:32:07.736Z,960.78
2019-01-23T19:33:13.424Z,960.80
2019-01-23T19:34:07.638Z,960.81
2019-01-23T19:35:07.596Z,960.79
2019-01-23T19:36:07.551Z,960.81
2019-01-23T19:37:07.505Z,960.81
2019-01-23T19:38:07.461Z,960.80
2019-01-23T19:39:07.415Z,960.79
2019-01-23T19:40:07.373Z,960.79
2019-01-23T19:41:07.327Z,960.79
2019-01-23T19:42:07.281Z,960.76
2019-01-23T19:43:07.237Z,960.77
2019-01-23T19:44:07.196Z,960.82
2019-01-23T19:45:07.147Z,960.80
2019-01-23T19:46:07.105Z,960.80
2019-01-23T19:47:07.060Z,960.80
2019-01-23T19:48:07.097Z,960.87
2019-01-23T19:49:07.080Z,960.85
2019-01-23T19:50:06.934Z,960.86
2019-01-23T19:51:06.883Z,960.86
2019-01-23T19:52:06.834Z,960.88
2019-01-23T19:53:06.892Z,960.86
2019-01-23T19:54:06.748Z,960.87
2019-01-23T19:55:06.702Z,960.88
2019-01-23T19:56:06.656Z,960.86
2019-01-23T19:57:06.608Z,960.86
2019-01-23T19:58:06.566Z,960.87
2019-01-23T19:59:06.520Z,960.89
2019-01-23T20:00:06.478Z,960.90
2019-01-23T20:01:06.431Z,960.91
2019-01-23T20:02:06.392Z,960.93
2019-01-23T20:03:06.344Z,960.92
2019-01-23T20:04:06.302Z,960.92
2019-01-23T20:05:06.253Z,960.92
2019-01-23T20:06:06.230Z,960.92
2019-01-23T20:07:06.174Z,960.96
2019-01-23T20:08:06.119Z,960.97
2019-01-23T20:09:06.083Z,960.98
2019-01-23T20:10:06.042Z,960.97
2019-01-23T20:11:05.994Z,960.98
2019-01-23T20:12:05.942Z,960.99
2019-01-23T20:13:05.909Z,961.02
2019-01-23T20:14:05.852Z,961.03
2019-01-23T20:15:05.815Z,961.03
2019-01-23T20:16:05.763Z,961.03
2019-01-23T20:17:05.721Z,961.01
2019-01-23T20:18:05.675Z,960.99
2019-01-23T20:19:05.633Z,961.02
2019-01-23T20:20:05.586Z,960.98
2019-01-23T20:21:05.549Z,961.00
2019-01-23T20:22:05.496Z,961.04
2019-01-23T20:23:05.455Z,961.07